sensor_id;sensor_type;location;lat;lon;timestamp;pressure;altitude;pressure_sealevel;temperature;humidity
49055;BME280;35405;52.344;14.530;2022-12-29T07:11:28;99733.72;;;7.89;100.00
49055;BME280;35405;52.344;14.530;2022-12-29T07:13:53;99736.03;;;7.95;100.00
49055;BME280;35405;52.344;14.530;2022-12-29T07:16:18;99732.94;;;8.02;100.00
49055;BME280;35405;52.344;14.530;2022-12-29T07:18:44;99746.88;;;8.09;100.00
49055;BME280;35405;52.344;14.530;2022-12-29T07:21:09;99740.56;;;8.14;100.00
49055;BME280;35405;52.344;14.530;2022-12-29T07:23:34;99742.41;;;8.18;100.00
49055;BME280;35405;52.344;14.530;2022-12-29T07:26:04;99747.50;;;8.20;100.00
49055;BME280;35405;52.344;14.530;2022-12-29T07:28:30;99751.44;;;8.28;100.00
49055;BME280;35405;52.344;14.530;2022-12-29T07:30:55;99747.91;;;8.27;100.00
49055;BME280;35405;52.344;14.530;2022-12-29T07:33:20;99749.94;;;8.21;100.00
49055;BME280;35405;52.344;14.530;2022-12-29T07:35:46;99755.53;;;8.25;100.00
49055;BME280;35405;52.344;14.530;2022-12-29T07:38:11;99754.44;;;8.26;100.00
49055;BME280;35405;52.344;14.530;2022-12-29T07:40:36;99754.94;;;8.28;100.00
49055;BME280;35405;52.344;14.530;2022-12-29T07:43:02;99755.75;;;8.29;100.00
49055;BME280;35405;52.344;14.530;2022-12-29T07:45:28;99754.75;;;8.24;100.00
49055;BME280;35405;52.344;14.530;2022-12-29T07:47:53;99757.34;;;8.16;100.00
49055;BME280;35405;52.344;14.530;2022-12-29T07:50:19;99756.19;;;8.03;100.00
49055;BME280;35405;52.344;14.530;2022-12-29T07:52:44;99753.00;;;8.01;100.00
49055;BME280;35405;52.344;14.530;2022-12-29T07:55:11;99754.59;;;8.02;100.00
49055;BME280;35405;52.344;14.530;2022-12-29T07:57:36;99753.19;;;8.05;100.00
49055;BME280;35405;52.344;14.530;2022-12-29T08:00:02;99755.81;;;8.10;100.00
49055;BME280;35405;52.344;14.530;2022-12-29T08:02:28;99761.84;;;8.20;100.00
49055;BME280;35405;52.344;14.530;2022-12-29T08:04:54;99755.84;;;8.37;100.00
49055;BME280;35405;52.344;14.530;2022-12-29T08:07:19;99757.84;;;8.32;100.00
49055;BME280;35405;52.344;14.530;2022-12-29T08:09:44;99760.25;;;8.19;100.00
49055;BME280;35405;52.344;14.530;2022-12-29T08:12:10;99765.75;;;8.14;100.00
49055;BME280;35405;52.344;14.530;2022-12-29T08:14:35;99752.28;;;8.09;100.00
49055;BME280;35405;52.344;14.530;2022-12-29T08:17:01;99754.78;;;8.06;100.00
49055;BME280;35405;52.344;14.530;2022-12-29T08:19:26;99751.47;;;8.09;100.00
49055;BME280;35405;52.344;14.530;2022-12-29T08:21:52;99755.44;;;8.16;100.00
49055;BME280;35405;52.344;14.530;2022-12-29T08:24:17;99762.16;;;8.19;100.00
49055;BME280;35405;52.344;14.530;2022-12-29T08:26:42;99756.94;;;8.22;100.00
49055;BME280;35405;52.344;14.530;2022-12-29T08:29:07;99768.09;;;8.35;100.00
49055;BME280;35405;52.344;14.530;2022-12-29T08:31:33;99760.63;;;8.45;100.00
49055;BME280;35405;52.344;14.530;2022-12-29T08:33:58;99748.59;;;8.52;100.00
49055;BME280;35405;52.344;14.530;2022-12-29T08:36:27;99751.06;;;8.48;100.00
49055;BME280;35405;52.344;14.530;2022-12-29T08:38:52;99750.28;;;8.47;100.00
49055;BME280;35405;52.344;14.530;2022-12-29T08:41:17;99757.09;;;8.59;100.00
49055;BME280;35405;52.344;14.530;2022-12-29T08:43:45;99745.34;;;8.77;100.00
49055;BME280;35405;52.344;14.530;2022-12-29T08:46:10;99748.16;;;9.00;100.00
49055;BME280;35405;52.344;14.530;2022-12-29T08:48:35;99749.53;;;9.11;100.00
49055;BME280;35405;52.344;14.530;2022-12-29T08:51:01;99750.13;;;9.22;100.00
49055;BME280;35405;52.344;14.530;2022-12-29T08:53:26;99742.06;;;9.30;100.00
49055;BME280;35405;52.344;14.530;2022-12-29T08:55:55;99756.59;;;9.34;100.00
49055;BME280;35405;52.344;14.530;2022-12-29T08:58:21;99734.47;;;9.41;100.00
49055;BME280;35405;52.344;14.530;2022-12-29T09:00:46;99748.00;;;9.55;100.00
49055;BME280;35405;52.344;14.530;2022-12-29T09:03:11;99743.38;;;9.55;100.00
49055;BME280;35405;52.344;14.530;2022-12-29T09:05:36;99756.44;;;9.53;100.00
49055;BME280;35405;52.344;14.530;2022-12-29T09:08:02;99760.69;;;9.46;100.00
49055;BME280;35405;52.344;14.530;2022-12-29T09:10:27;99746.88;;;9.33;100.00
49055;BME280;35405;52.344;14.530;2022-12-29T09:12:53;99733.41;;;9.28;100.00
49055;BME280;35405;52.344;14.530;2022-12-29T09:15:18;99743.03;;;9.34;100.00
49055;BME280;35405;52.344;14.530;2022-12-29T09:17:44;99742.59;;;9.41;100.00
49055;BME280;35405;52.344;14.530;2022-12-29T09:20:11;99744.22;;;9.42;100.00
49055;BME280;35405;52.344;14.530;2022-12-29T09:22:36;99751.06;;;9.39;100.00
49055;BME280;35405;52.344;14.530;2022-12-29T09:25:01;99749.34;;;9.44;100.00
49055;BME280;35405;52.344;14.530;2022-12-29T09:27:27;99750.09;;;9.58;100.00
49055;BME280;35405;52.344;14.530;2022-12-29T09:29:52;99755.84;;;9.79;100.00
49055;BME280;35405;52.344;14.530;2022-12-29T09:32:17;99748.00;;;10.00;100.00
49055;BME280;35405;52.344;14.530;2022-12-29T09:34:43;99749.69;;;10.18;100.00
49055;BME280;35405;52.344;14.530;2022-12-29T09:37:08;99750.03;;;10.25;100.00
49055;BME280;35405;52.344;14.530;2022-12-29T09:39:34;99740.81;;;10.26;100.00
49055;BME280;35405;52.344;14.530;2022-12-29T09:42:01;99746.16;;;10.18;100.00
49055;BME280;35405;52.344;14.530;2022-12-29T09:44:34;99741.38;;;9.92;100.00
49055;BME280;35405;52.344;14.530;2022-12-29T09:47:07;99733.44;;;9.73;100.00
49055;BME280;35405;52.344;14.530;2022-12-29T09:52:32;99743.44;;;9.64;100.00
49055;BME280;35405;52.344;14.530;2022-12-29T09:57:23;99741.28;;;9.75;100.00
49055;BME280;35405;52.344;14.530;2022-12-29T09:59:50;99726.94;;;9.83;100.00
49055;BME280;35405;52.344;14.530;2022-12-29T10:04:42;99730.91;;;9.99;100.00
49055;BME280;35405;52.344;14.530;2022-12-29T10:08:12;99729.03;;;10.08;100.00
49055;BME280;35405;52.344;14.530;2022-12-29T10:21:20;99726.63;;;10.38;100.00
49055;BME280;35405;52.344;14.530;2022-12-29T10:25:52;99704.31;;;10.50;100.00
49055;BME280;35405;52.344;14.530;2022-12-29T10:30:43;99693.63;;;10.62;100.00
49055;BME280;35405;52.344;14.530;2022-12-29T10:33:11;99697.75;;;10.60;100.00
49055;BME280;35405;52.344;14.530;2022-12-29T10:35:40;99693.13;;;10.60;100.00
49055;BME280;35405;52.344;14.530;2022-12-29T10:45:55;99695.56;;;10.79;100.00
49055;BME280;35405;52.344;14.530;2022-12-29T10:48:32;99702.78;;;10.84;100.00
49055;BME280;35405;52.344;14.530;2022-12-29T10:50:58;99676.53;;;10.96;100.00
49055;BME280;35405;52.344;14.530;2022-12-29T10:53:25;99688.88;;;11.03;100.00
49055;BME280;35405;52.344;14.530;2022-12-29T10:55:52;99698.81;;;11.07;100.00
49055;BME280;35405;52.344;14.530;2022-12-29T10:58:21;99697.06;;;11.11;100.00
49055;BME280;35405;52.344;14.530;2022-12-29T11:00:53;99691.75;;;11.15;100.00
49055;BME280;35405;52.344;14.530;2022-12-29T11:08:57;99692.41;;;11.29;100.00
49055;BME280;35405;52.344;14.530;2022-12-29T11:11:25;99696.09;;;11.25;100.00
49055;BME280;35405;52.344;14.530;2022-12-29T11:13:55;99695.28;;;11.24;100.00
49055;BME280;35405;52.344;14.530;2022-12-29T11:16:27;99677.22;;;11.19;100.00
49055;BME280;35405;52.344;14.530;2022-12-29T11:18:55;99701.69;;;11.19;100.00
49055;BME280;35405;52.344;14.530;2022-12-29T11:23:59;99679.28;;;11.23;100.00
49055;BME280;35405;52.344;14.530;2022-12-29T11:26:25;99667.91;;;11.29;100.00
49055;BME280;35405;52.344;14.530;2022-12-29T11:31:45;99679.28;;;11.31;100.00
49055;BME280;35405;52.344;14.530;2022-12-29T11:34:21;99686.63;;;11.39;100.00
49055;BME280;35405;52.344;14.530;2022-12-29T11:36:49;99673.34;;;11.47;100.00
49055;BME280;35405;52.344;14.530;2022-12-29T11:39:29;99666.28;;;11.45;100.00
49055;BME280;35405;52.344;14.530;2022-12-29T11:41:55;99679.91;;;11.37;100.00
49055;BME280;35405;52.344;14.530;2022-12-29T11:44:21;99671.59;;;11.33;100.00
49055;BME280;35405;52.344;14.530;2022-12-29T11:46:47;99684.75;;;11.31;100.00
49055;BME280;35405;52.344;14.530;2022-12-29T11:49:18;99679.28;;;11.23;100.00
49055;BME280;35405;52.344;14.530;2022-12-29T11:51:54;99686.31;;;11.24;100.00
49055;BME280;35405;52.344;14.530;2022-12-29T11:54:27;99686.97;;;11.38;100.00
49055;BME280;35405;52.344;14.530;2022-12-29T11:56:55;99685.69;;;11.44;100.00
49055;BME280;35405;52.344;14.530;2022-12-29T12:02:26;99695.28;;;11.41;100.00
49055;BME280;35405;52.344;14.530;2022-12-29T12:04:59;99698.31;;;11.49;100.00
49055;BME280;35405;52.344;14.530;2022-12-29T12:07:40;99698.00;;;11.59;100.00
49055;BME280;35405;52.344;14.530;2022-12-29T12:10:10;99692.72;;;11.62;100.00
49055;BME280;35405;52.344;14.530;2022-12-29T12:12:39;99710.34;;;11.65;100.00
49055;BME280;35405;52.344;14.530;2022-12-29T12:15:08;99690.47;;;11.64;100.00
49055;BME280;35405;52.344;14.530;2022-12-29T12:20:24;99686.13;;;11.72;100.00
49055;BME280;35405;52.344;14.530;2022-12-29T12:25:40;99675.38;;;11.76;100.00
49055;BME280;35405;52.344;14.530;2022-12-29T12:30:38;99659.88;;;11.59;100.00
49055;BME280;35405;52.344;14.530;2022-12-29T12:33:08;99670.28;;;11.65;100.00
49055;BME280;35405;52.344;14.530;2022-12-29T12:41:07;99665.63;;;11.57;100.00
49055;BME280;35405;52.344;14.530;2022-12-29T12:43:46;99658.59;;;11.56;100.00
49055;BME280;35405;52.344;14.530;2022-12-29T12:48:46;99665.47;;;11.54;100.00
49055;BME280;35405;52.344;14.530;2022-12-29T12:58:49;99667.13;;;11.37;100.00
49055;BME280;35405;52.344;14.530;2022-12-29T13:01:19;99665.84;;;11.43;100.00
49055;BME280;35405;52.344;14.530;2022-12-29T13:06:40;99663.25;;;11.56;100.00
49055;BME280;35405;52.344;14.530;2022-12-29T13:11:52;99670.13;;;11.62;100.00
49055;BME280;35405;52.344;14.530;2022-12-29T13:14:27;99678.44;;;11.57;100.00
49055;BME280;35405;52.344;14.530;2022-12-29T13:22:57;99656.97;;;11.64;100.00
49055;BME280;35405;52.344;14.530;2022-12-29T13:25:30;99657.44;;;11.66;100.00
49055;BME280;35405;52.344;14.530;2022-12-29T13:30:53;99658.09;;;11.63;100.00
49055;BME280;35405;52.344;14.530;2022-12-29T13:36:24;99663.22;;;11.64;100.00
49055;BME280;35405;52.344;14.530;2022-12-29T13:41:35;99663.06;;;11.61;100.00
49055;BME280;35405;52.344;14.530;2022-12-29T13:44:02;99680.22;;;11.53;100.00
49055;BME280;35405;52.344;14.530;2022-12-29T13:46:29;99665.00;;;11.43;100.00
49055;BME280;35405;52.344;14.530;2022-12-29T13:49:00;99668.72;;;11.38;100.00
49055;BME280;35405;52.344;14.530;2022-12-29T13:51:27;99678.00;;;11.29;100.00
49055;BME280;35405;52.344;14.530;2022-12-29T13:54:37;99680.88;;;11.24;100.00
49055;BME280;35405;52.344;14.530;2022-12-29T13:59:20;99684.38;;;11.07;100.00
49055;BME280;35405;52.344;14.530;2022-12-29T14:01:55;99699.75;;;11.03;100.00
49055;BME280;35405;52.344;14.530;2022-12-29T14:04:25;99702.00;;;11.01;100.00
49055;BME280;35405;52.344;14.530;2022-12-29T14:06:58;99701.53;;;10.98;100.00
49055;BME280;35405;52.344;14.530;2022-12-29T14:12:03;99708.09;;;11.06;100.00
49055;BME280;35405;52.344;14.530;2022-12-29T14:14:44;99706.16;;;10.98;100.00
49055;BME280;35405;52.344;14.530;2022-12-29T14:17:09;99714.16;;;10.94;100.00
49055;BME280;35405;52.344;14.530;2022-12-29T14:19:38;99714.31;;;10.89;100.00
49055;BME280;35405;52.344;14.530;2022-12-29T14:22:06;99718.59;;;10.82;100.00
49055;BME280;35405;52.344;14.530;2022-12-29T14:33:11;99729.22;;;10.52;100.00
49055;BME280;35405;52.344;14.530;2022-12-29T14:35:00;99735.44;;;10.44;100.00
49055;BME280;35405;52.344;14.530;2022-12-29T14:37:45;99729.81;;;10.40;100.00
49055;BME280;35405;52.344;14.530;2022-12-29T14:42:42;99748.97;;;10.26;100.00
49055;BME280;35405;52.344;14.530;2022-12-29T14:45:24;99741.22;;;10.20;100.00
49055;BME280;35405;52.344;14.530;2022-12-29T14:47:51;99754.94;;;10.15;100.00
49055;BME280;35405;52.344;14.530;2022-12-29T14:57:43;99746.50;;;9.94;100.00
49055;BME280;35405;52.344;14.530;2022-12-29T15:00:21;99756.25;;;9.95;100.00
49055;BME280;35405;52.344;14.530;2022-12-29T15:02:54;99754.97;;;9.92;100.00
49055;BME280;35405;52.344;14.530;2022-12-29T15:08:25;99771.69;;;9.85;100.00
49055;BME280;35405;52.344;14.530;2022-12-29T15:10:55;99773.25;;;9.78;100.00
49055;BME280;35405;52.344;14.530;2022-12-29T15:16:21;99779.53;;;9.65;100.00
49055;BME280;35405;52.344;14.530;2022-12-29T15:18:47;99776.31;;;9.62;100.00
49055;BME280;35405;52.344;14.530;2022-12-29T15:21:35;99788.00;;;9.63;100.00
49055;BME280;35405;52.344;14.530;2022-12-29T15:24:05;99787.78;;;9.59;100.00
49055;BME280;35405;52.344;14.530;2022-12-29T15:26:42;99786.50;;;9.57;100.00
49055;BME280;35405;52.344;14.530;2022-12-29T15:29:28;99791.44;;;9.55;100.00
49055;BME280;35405;52.344;14.530;2022-12-29T15:31:58;99793.81;;;9.56;100.00
49055;BME280;35405;52.344;14.530;2022-12-29T15:34:32;99796.06;;;9.54;100.00
49055;BME280;35405;52.344;14.530;2022-12-29T15:37:05;99799.06;;;9.53;100.00
49055;BME280;35405;52.344;14.530;2022-12-29T15:39:37;99805.09;;;9.50;100.00
49055;BME280;35405;52.344;14.530;2022-12-29T15:42:07;99805.09;;;9.50;100.00
49055;BME280;35405;52.344;14.530;2022-12-29T15:44:42;99810.06;;;9.48;100.00
49055;BME280;35405;52.344;14.530;2022-12-29T15:50:04;99803.94;;;9.42;100.00
49055;BME280;35405;52.344;14.530;2022-12-29T15:52:30;99807.13;;;9.44;100.00
49055;BME280;35405;52.344;14.530;2022-12-29T15:54:59;99805.09;;;9.50;100.00
49055;BME280;35405;52.344;14.530;2022-12-29T15:57:26;99807.53;;;9.51;100.00
49055;BME280;35405;52.344;14.530;2022-12-29T15:59:52;99814.44;;;9.57;100.00
49055;BME280;35405;52.344;14.530;2022-12-29T16:02:18;99819.56;;;9.59;100.00
49055;BME280;35405;52.344;14.530;2022-12-29T16:04:45;99816.56;;;9.60;100.00
49055;BME280;35405;52.344;14.530;2022-12-29T16:07:33;99816.72;;;9.64;100.00
49055;BME280;35405;52.344;14.530;2022-12-29T16:10:01;99819.44;;;9.64;100.00
49055;BME280;35405;52.344;14.530;2022-12-29T16:12:36;99821.91;;;9.74;100.00
49055;BME280;35405;52.344;14.530;2022-12-29T16:15:03;99822.50;;;9.85;100.00
49055;BME280;35405;52.344;14.530;2022-12-29T16:17:37;99823.97;;;9.91;100.00
49055;BME280;35405;52.344;14.530;2022-12-29T16:20:19;99832.41;;;9.90;100.00
49055;BME280;35405;52.344;14.530;2022-12-29T16:22:57;99831.63;;;9.89;100.00
49055;BME280;35405;52.344;14.530;2022-12-29T16:25:33;99833.09;;;9.95;100.00
49055;BME280;35405;52.344;14.530;2022-12-29T16:28:18;99841.16;;;10.00;100.00
49055;BME280;35405;52.344;14.530;2022-12-29T16:31:05;99837.69;;;10.08;100.00
49055;BME280;35405;52.344;14.530;2022-12-29T16:39:05;99841.72;;;10.11;100.00
49055;BME280;35405;52.344;14.530;2022-12-29T16:41:45;99850.66;;;10.12;100.00
49055;BME280;35405;52.344;14.530;2022-12-29T16:44:11;99850.97;;;10.10;100.00
49055;BME280;35405;52.344;14.530;2022-12-29T16:46:38;99854.63;;;10.05;100.00
49055;BME280;35405;52.344;14.530;2022-12-29T16:49:10;99855.28;;;9.89;100.00
49055;BME280;35405;52.344;14.530;2022-12-29T16:51:39;99856.94;;;9.76;100.00
49055;BME280;35405;52.344;14.530;2022-12-29T16:54:05;99862.69;;;9.60;100.00
49055;BME280;35405;52.344;14.530;2022-12-29T16:56:33;99868.47;;;9.45;100.00
49055;BME280;35405;52.344;14.530;2022-12-29T17:01:24;99863.84;;;9.32;100.00
49055;BME280;35405;52.344;14.530;2022-12-29T17:03:51;99868.47;;;9.31;100.00
49055;BME280;35405;52.344;14.530;2022-12-29T17:06:18;99869.47;;;9.22;100.00
49055;BME280;35405;52.344;14.530;2022-12-29T17:08:45;99876.13;;;9.15;100.00
49055;BME280;35405;52.344;14.530;2022-12-29T17:11:21;99874.50;;;9.14;100.00
49055;BME280;35405;52.344;14.530;2022-12-29T17:14:11;99861.34;;;9.08;100.00
49055;BME280;35405;52.344;14.530;2022-12-29T17:16:40;99872.31;;;9.03;100.00
49055;BME280;35405;52.344;14.530;2022-12-29T17:19:06;99881.94;;;8.95;100.00
49055;BME280;35405;52.344;14.530;2022-12-29T17:21:32;99877.91;;;8.92;100.00
49055;BME280;35405;52.344;14.530;2022-12-29T17:23:57;99885.75;;;8.94;100.00
49055;BME280;35405;52.344;14.530;2022-12-29T17:26:23;99889.88;;;8.91;100.00
49055;BME280;35405;52.344;14.530;2022-12-29T17:28:48;99892.97;;;8.85;100.00
49055;BME280;35405;52.344;14.530;2022-12-29T17:31:13;99882.94;;;8.85;100.00
49055;BME280;35405;52.344;14.530;2022-12-29T17:33:38;99891.78;;;8.91;100.00
49055;BME280;35405;52.344;14.530;2022-12-29T17:36:09;99889.44;;;8.84;100.00
49055;BME280;35405;52.344;14.530;2022-12-29T17:38:35;99889.75;;;8.83;100.00
49055;BME280;35405;52.344;14.530;2022-12-29T17:41:01;99894.78;;;8.76;100.00
49055;BME280;35405;52.344;14.530;2022-12-29T17:43:26;99892.66;;;8.73;100.00
49055;BME280;35405;52.344;14.530;2022-12-29T17:45:52;99905.31;;;8.77;100.00
49055;BME280;35405;52.344;14.530;2022-12-29T17:48:18;99908.03;;;8.77;100.00
49055;BME280;35405;52.344;14.530;2022-12-29T17:50:45;99907.81;;;8.74;100.00
49055;BME280;35405;52.344;14.530;2022-12-29T17:53:12;99900.88;;;8.67;100.00
49055;BME280;35405;52.344;14.530;2022-12-29T17:55:38;99908.09;;;8.58;100.00
49055;BME280;35405;52.344;14.530;2022-12-29T17:58:37;99901.63;;;8.54;100.00
49055;BME280;35405;52.344;14.530;2022-12-29T18:00:56;99911.53;;;8.45;100.00
49055;BME280;35405;52.344;14.530;2022-12-29T18:05:56;99908.13;;;8.39;100.00
49055;BME280;35405;52.344;14.530;2022-12-29T18:08:22;99913.25;;;8.41;100.00
49055;BME280;35405;52.344;14.530;2022-12-29T18:10:52;99916.59;;;8.33;100.00
49055;BME280;35405;52.344;14.530;2022-12-29T18:13:21;99917.63;;;8.37;100.00
49055;BME280;35405;52.344;14.530;2022-12-29T18:15:46;99915.94;;;8.41;100.00
49055;BME280;35405;52.344;14.530;2022-12-29T18:18:13;99928.03;;;8.49;100.00
49055;BME280;35405;52.344;14.530;2022-12-29T18:20:39;99922.22;;;8.55;100.00
49055;BME280;35405;52.344;14.530;2022-12-29T18:23:04;99924.97;;;8.69;100.00
49055;BME280;35405;52.344;14.530;2022-12-29T18:27:58;99932.22;;;8.87;100.00
49055;BME280;35405;52.344;14.530;2022-12-29T18:30:30;99930.53;;;8.91;100.00
49055;BME280;35405;52.344;14.530;2022-12-29T18:32:55;99933.25;;;8.91;100.00
49055;BME280;35405;52.344;14.530;2022-12-29T18:35:44;99932.66;;;8.95;100.00
49055;BME280;35405;52.344;14.530;2022-12-29T18:38:06;99934.84;;;8.92;100.00
49055;BME280;35405;52.344;14.530;2022-12-29T18:40:34;99938.63;;;8.78;100.00
49055;BME280;35405;52.344;14.530;2022-12-29T18:43:05;99935.09;;;8.63;100.00
49055;BME280;35405;52.344;14.530;2022-12-29T18:45:31;99936.06;;;8.54;100.00
49055;BME280;35405;52.344;14.530;2022-12-29T18:47:57;99926.41;;;8.47;100.00
49055;BME280;35405;52.344;14.530;2022-12-29T18:50:22;99936.75;;;8.45;100.00
49055;BME280;35405;52.344;14.530;2022-12-29T18:52:55;99939.03;;;8.38;100.00
49055;BME280;35405;52.344;14.530;2022-12-29T18:55:38;99937.84;;;8.44;100.00
49055;BME280;35405;52.344;14.530;2022-12-29T18:58:14;99947.94;;;8.58;100.00
49055;BME280;35405;52.344;14.530;2022-12-29T19:00:39;99954.16;;;8.58;100.00
49055;BME280;35405;52.344;14.530;2022-12-29T19:03:04;99952.31;;;8.54;100.00
49055;BME280;35405;52.344;14.530;2022-12-29T19:05:31;99957.16;;;8.57;100.00
49055;BME280;35405;52.344;14.530;2022-12-29T19:07:59;99963.81;;;8.64;100.00
49055;BME280;35405;52.344;14.530;2022-12-29T19:10:24;99965.13;;;8.67;100.00
49055;BME280;35405;52.344;14.530;2022-12-29T19:12:50;99955.50;;;8.75;100.00
49055;BME280;35405;52.344;14.530;2022-12-29T19:15:25;99953.38;;;8.72;100.00
49055;BME280;35405;52.344;14.530;2022-12-29T19:18:03;99961.63;;;8.66;100.00
49055;BME280;35405;52.344;14.530;2022-12-29T19:20:33;99956.06;;;8.58;100.00
49055;BME280;35405;52.344;14.530;2022-12-29T19:23:00;99964.44;;;8.42;100.00
49055;BME280;35405;52.344;14.530;2022-12-29T19:25:26;99958.78;;;8.20;100.00
49055;BME280;35405;52.344;14.530;2022-12-29T19:27:52;99959.44;;;8.31;100.00
49055;BME280;35405;52.344;14.530;2022-12-29T19:30:17;99963.13;;;8.40;100.00
49055;BME280;35405;52.344;14.530;2022-12-29T19:32:55;99969.88;;;8.42;100.00
49055;BME280;35405;52.344;14.530;2022-12-29T19:35:22;99968.53;;;8.40;100.00
49055;BME280;35405;52.344;14.530;2022-12-29T19:37:47;99969.91;;;8.37;100.00
49055;BME280;35405;52.344;14.530;2022-12-29T19:40:14;99976.56;;;8.45;100.00
49055;BME280;35405;52.344;14.530;2022-12-29T19:42:39;99969.03;;;8.61;100.00
49055;BME280;35405;52.344;14.530;2022-12-29T19:45:05;99973.63;;;8.60;100.00
49055;BME280;35405;52.344;14.530;2022-12-29T19:47:31;99966.31;;;8.42;100.00
49055;BME280;35405;52.344;14.530;2022-12-29T19:49:56;99973.13;;;8.20;100.00
49055;BME280;35405;52.344;14.530;2022-12-29T19:52:25;99978.69;;;8.10;100.00
49055;BME280;35405;52.344;14.530;2022-12-29T19:54:51;99974.13;;;8.06;100.00
49055;BME280;35405;52.344;14.530;2022-12-29T19:57:16;99980.34;;;8.06;100.00
49055;BME280;35405;52.344;14.530;2022-12-29T19:59:42;99986.03;;;8.10;100.00
49055;BME280;35405;52.344;14.530;2022-12-29T20:02:12;99984.63;;;8.31;100.00
49055;BME280;35405;52.344;14.530;2022-12-29T20:04:41;99990.44;;;8.43;100.00
49055;BME280;35405;52.344;14.530;2022-12-29T20:07:06;99991.66;;;8.51;100.00
49055;BME280;35405;52.344;14.530;2022-12-29T20:09:31;99994.25;;;8.42;100.00
49055;BME280;35405;52.344;14.530;2022-12-29T20:12:05;100000.50;;;8.38;100.00
49055;BME280;35405;52.344;14.530;2022-12-29T20:14:31;100000.75;;;8.41;100.00
49055;BME280;35405;52.344;14.530;2022-12-29T20:16:56;99995.78;;;8.49;100.00
49055;BME280;35405;52.344;14.530;2022-12-29T20:19:21;99993.88;;;8.49;100.00
49055;BME280;35405;52.344;14.530;2022-12-29T20:21:47;99998.78;;;8.47;100.00
49055;BME280;35405;52.344;14.530;2022-12-29T20:24:13;99996.78;;;8.34;100.00
49055;BME280;35405;52.344;14.530;2022-12-29T20:26:38;100007.69;;;8.29;100.00
49055;BME280;35405;52.344;14.530;2022-12-29T20:29:03;99989.84;;;8.28;100.00
49055;BME280;35405;52.344;14.530;2022-12-29T20:31:29;99997.13;;;8.27;100.00
49055;BME280;35405;52.344;14.530;2022-12-29T20:33:55;99994.63;;;8.12;100.00
49055;BME280;35405;52.344;14.530;2022-12-29T20:36:21;99995.16;;;7.95;100.00
49055;BME280;35405;52.344;14.530;2022-12-29T20:38:48;99993.81;;;7.92;100.00
49055;BME280;35405;52.344;14.530;2022-12-29T20:41:13;99991.44;;;8.10;100.00
49055;BME280;35405;52.344;14.530;2022-12-29T20:43:39;99996.13;;;8.23;100.00
49055;BME280;35405;52.344;14.530;2022-12-29T20:46:04;100003.59;;;8.31;100.00
49055;BME280;35405;52.344;14.530;2022-12-29T20:48:30;100004.91;;;8.34;100.00
49055;BME280;35405;52.344;14.530;2022-12-29T20:50:55;99994.06;;;8.34;100.00
49055;BME280;35405;52.344;14.530;2022-12-29T20:53:23;99996.44;;;8.40;100.00
49055;BME280;35405;52.344;14.530;2022-12-29T20:55:48;99996.44;;;8.40;100.00
49055;BME280;35405;52.344;14.530;2022-12-29T20:58:18;100000.75;;;8.41;100.00
49055;BME280;35405;52.344;14.530;2022-12-29T21:00:43;100000.25;;;8.39;100.00
49055;BME280;35405;52.344;14.530;2022-12-29T21:03:08;100003.22;;;8.38;100.00
49055;BME280;35405;52.344;14.530;2022-12-29T21:05:35;99993.50;;;8.37;100.00
49055;BME280;35405;52.344;14.530;2022-12-29T21:08:00;99997.75;;;8.43;100.00
49055;BME280;35405;52.344;14.530;2022-12-29T21:10:25;99997.31;;;8.55;100.00
49055;BME280;35405;52.344;14.530;2022-12-29T21:12:51;100002.50;;;8.51;100.00
49055;BME280;35405;52.344;14.530;2022-12-29T21:15:16;100005.00;;;8.47;100.00
49055;BME280;35405;52.344;14.530;2022-12-29T21:17:42;100010.13;;;8.49;100.00
49055;BME280;35405;52.344;14.530;2022-12-29T21:20:08;100010.94;;;8.50;100.00
49055;BME280;35405;52.344;14.530;2022-12-29T21:22:33;100010.34;;;8.53;100.00
49055;BME280;35405;52.344;14.530;2022-12-29T21:24:58;100010.03;;;8.54;100.00
49055;BME280;35405;52.344;14.530;2022-12-29T21:27:23;100007.31;;;8.54;100.00
49055;BME280;35405;52.344;14.530;2022-12-29T21:29:49;99997.00;;;8.56;100.00
49055;BME280;35405;52.344;14.530;2022-12-29T21:32:14;99998.31;;;8.59;100.00
49055;BME280;35405;52.344;14.530;2022-12-29T21:34:39;100003.53;;;8.55;100.00
49055;BME280;35405;52.344;14.530;2022-12-29T21:37:04;100001.91;;;8.54;100.00
49055;BME280;35405;52.344;14.530;2022-12-29T21:39:30;100001.41;;;8.52;100.00
49055;BME280;35405;52.344;14.530;2022-12-29T21:41:55;99999.88;;;8.46;100.00
49055;BME280;35405;52.344;14.530;2022-12-29T21:44:25;99999.88;;;8.46;100.00
49055;BME280;35405;52.344;14.530;2022-12-29T21:47:09;100017.16;;;8.50;100.00
49055;BME280;35405;52.344;14.530;2022-12-29T21:49:34;100016.94;;;8.46;100.00
49055;BME280;35405;52.344;14.530;2022-12-29T21:52:00;100020.53;;;8.42;100.00
49055;BME280;35405;52.344;14.530;2022-12-29T21:54:26;100017.31;;;8.40;100.00
49055;BME280;35405;52.344;14.530;2022-12-29T21:57:10;100030.88;;;8.40;100.00
49055;BME280;35405;52.344;14.530;2022-12-29T21:59:36;100018.31;;;8.25;100.00
49055;BME280;35405;52.344;14.530;2022-12-29T22:02:23;100031.31;;;8.04;100.00
49055;BME280;35405;52.344;14.530;2022-12-29T22:05:09;100029.59;;;7.89;100.00
49055;BME280;35405;52.344;14.530;2022-12-29T22:07:53;100031.91;;;7.77;100.00
49055;BME280;35405;52.344;14.530;2022-12-29T22:10:41;100039.63;;;7.89;100.00
49055;BME280;35405;52.344;14.530;2022-12-29T22:13:26;100047.97;;;7.92;100.00
49055;BME280;35405;52.344;14.530;2022-12-29T22:15:51;100041.94;;;7.76;100.00
49055;BME280;35405;52.344;14.530;2022-12-29T22:18:17;100038.00;;;7.64;100.00